Time;durP1;ratioP1;P1;durP2;ratioP2;P2;SDS_P1;SDS_P2;PMS_P1;PMS_P2;Temp;Humidity;BMP_temperature;BMP_pressure;BME280_temperature;BME280_humidity;BME280_pressure;Samples;Min_cycle;Max_cycle;Signal;HPM_P1;HPM_P2
2022/04/06 00:01:37;;;;;;;3.58;1.90;;;16.50;55.40;;;;;;4914026;28;92834;-71
2022/04/06 00:04:03;;;;;;;4.05;1.63;;;16.50;55.50;;;;;;4912743;28;95623;-70
2022/04/06 00:06:29;;;;;;;4.45;1.95;;;16.60;55.50;;;;;;4913635;28;95062;-70
2022/04/06 00:08:55;;;;;;;3.42;1.70;;;16.60;55.50;;;;;;4913376;28;92602;-70
2022/04/06 00:11:22;;;;;;;3.78;1.60;;;16.50;55.40;;;;;;4914430;28;92973;-69
2022/04/06 00:13:48;;;;;;;5.95;1.92;;;16.50;55.40;;;;;;4914218;28;94442;-72
2022/04/06 00:16:14;;;;;;;5.28;2.10;;;16.50;55.40;;;;;;4914070;28;94024;-70
2022/04/06 00:18:40;;;;;;;6.30;2.20;;;16.50;55.30;;;;;;4913897;28;92939;-70
2022/04/06 00:21:05;;;;;;;5.32;2.10;;;16.50;55.50;;;;;;4913809;28;92243;-70
2022/04/06 00:23:31;;;;;;;3.55;1.65;;;16.50;55.40;;;;;;4912656;28;94376;-69
2022/04/06 00:25:57;;;;;;;4.28;1.65;;;16.50;55.40;;;;;;4913407;28;92622;-71
2022/04/06 00:28:24;;;;;;;4.18;1.80;;;16.50;55.40;;;;;;4912949;28;95483;-70
2022/04/06 00:30:50;;;;;;;3.80;2.00;;;16.50;55.30;;;;;;4913292;28;92485;-70
2022/04/06 00:33:16;;;;;;;4.70;1.73;;;16.50;55.30;;;;;;4913676;28;93863;-69
2022/04/06 00:35:41;;;;;;;3.65;2.00;;;16.50;55.40;;;;;;4912667;28;94516;-70
2022/04/06 00:38:08;;;;;;;3.15;1.80;;;16.50;55.30;;;;;;4914431;28;93019;-70
2022/04/06 00:40:35;;;;;;;4.47;1.73;;;16.50;55.40;;;;;;4913816;28;92558;-69
2022/04/06 00:43:05;;;;;;;4.40;1.65;;;16.50;55.40;;;;;;4913831;28;93574;-69
2022/04/06 00:45:31;;;;;;;6.43;2.10;;;16.50;55.30;;;;;;4913632;28;93012;-70
2022/04/06 00:47:56;;;;;;;5.30;1.70;;;16.50;55.40;;;;;;4913850;28;92624;-70
2022/04/06 00:50:23;;;;;;;3.67;1.80;;;16.50;55.40;;;;;;4913168;28;92573;-70
2022/04/06 00:52:55;;;;;;;5.85;2.40;;;16.40;55.30;;;;;;4911784;28;97080;-69
2022/04/06 00:55:21;;;;;;;4.18;1.70;;;16.50;55.40;;;;;;4912630;28;96390;-69
2022/04/06 00:57:48;;;;;;;2.72;1.55;;;16.50;55.40;;;;;;4913359;28;92515;-70
2022/04/06 01:00:15;;;;;;;3.45;1.60;;;16.40;55.30;;;;;;4912439;28;94077;-70
2022/04/06 01:02:41;;;;;;;4.53;2.28;;;16.40;55.30;;;;;;4912990;28;94544;-70
2022/04/06 01:05:07;;;;;;;5.53;1.98;;;16.40;55.30;;;;;;4912825;28;92864;-70
2022/04/06 01:07:34;;;;;;;4.88;1.60;;;16.40;55.30;;;;;;4912787;28;92887;-70
2022/04/06 01:09:59;;;;;;;5.50;2.03;;;16.40;55.20;;;;;;4913056;28;91756;-70
2022/04/06 01:12:26;;;;;;;3.90;1.40;;;16.40;55.30;;;;;;4912194;28;93863;-69
2022/04/06 01:14:53;;;;;;;4.50;1.63;;;16.40;55.30;;;;;;4912370;28;92908;-69
2022/04/06 01:17:19;;;;;;;3.35;1.85;;;16.40;55.30;;;;;;4912234;28;94956;-69
2022/04/06 01:19:47;;;;;;;2.88;1.70;;;16.40;55.30;;;;;;4912970;28;92464;-70
2022/04/06 01:22:17;;;;;;;4.93;2.00;;;16.40;55.40;;;;;;4912754;28;94063;-69
2022/04/06 01:24:45;;;;;;;3.47;1.58;;;16.40;55.30;;;;;;4913067;28;93906;-70
2022/04/06 01:27:11;;;;;;;3.70;1.83;;;16.40;55.30;;;;;;4912883;28;93054;-70
2022/04/06 01:29:38;;;;;;;4.22;1.70;;;16.40;55.40;;;;;;4913248;28;92472;-70
2022/04/06 01:32:17;;;;;;;4.00;1.80;;;16.40;55.20;;;;;;4911980;28;94674;-69
2022/04/06 01:34:44;;;;;;;3.35;1.77;;;16.40;55.20;;;;;;4912753;28;92911;-69
2022/04/06 01:37:11;;;;;;;5.13;1.70;;;16.40;55.20;;;;;;4912175;28;93072;-70
2022/04/06 01:39:39;;;;;;;3.72;1.80;;;16.40;55.20;;;;;;4912503;28;94113;-70
2022/04/06 01:42:06;;;;;;;5.03;2.28;;;16.40;55.20;;;;;;4910973;28;95223;-70
2022/04/06 01:44:33;;;;;;;3.85;1.60;;;16.40;55.20;;;;;;4911719;28;96077;-70
2022/04/06 01:46:59;;;;;;;5.03;1.90;;;16.40;55.30;;;;;;4912374;28;93097;-70
2022/04/06 01:52:13;;;;;;;4.32;1.88;;;16.40;55.30;;;;;;4913717;28;93372;-69
2022/04/06 01:54:47;;;;;;;5.35;2.45;;;16.30;55.20;;;;;;4912485;28;93838;-69
2022/04/06 01:57:14;;;;;;;5.40;1.98;;;16.30;55.30;;;;;;4912823;28;92637;-69
2022/04/06 01:59:41;;;;;;;4.28;2.08;;;16.40;55.30;;;;;;4913242;28;93163;-70
2022/04/06 02:02:08;;;;;;;4.50;2.00;;;16.40;55.20;;;;;;4912642;28;94943;-69
2022/04/06 02:04:36;;;;;;;4.85;2.00;;;16.40;55.20;;;;;;4911796;28;93911;-69
2022/04/06 02:07:02;;;;;;;4.90;1.98;;;16.30;55.10;;;;;;4911810;28;95257;-69
2022/04/06 02:09:28;;;;;;;4.75;1.85;;;16.30;55.20;;;;;;4911883;28;92518;-69
2022/04/06 02:11:54;;;;;;;4.70;1.67;;;16.40;55.20;;;;;;4911742;28;93279;-69
2022/04/06 02:14:20;;;;;;;3.83;2.15;;;16.30;55.20;;;;;;4911760;28;92894;-69
2022/04/06 02:16:48;;;;;;;4.03;2.10;;;16.40;55.40;;;;;;4911635;28;92913;-69
2022/04/06 02:19:13;;;;;;;5.88;2.08;;;16.30;55.20;;;;;;4911633;28;93075;-70
2022/04/06 02:21:39;;;;;;;3.15;1.65;;;16.30;55.30;;;;;;4912388;28;93895;-69
2022/04/06 02:24:05;;;;;;;3.55;1.52;;;16.30;55.20;;;;;;4912617;28;93860;-70
2022/04/06 02:26:30;;;;;;;3.97;1.85;;;16.30;55.30;;;;;;4913227;28;92990;-70
2022/04/06 02:28:59;;;;;;;4.10;1.85;;;16.30;55.30;;;;;;4912125;28;93836;-69
2022/04/06 02:31:25;;;;;;;5.03;2.22;;;16.30;55.30;;;;;;4910099;28;96565;-70
2022/04/06 02:33:50;;;;;;;4.63;1.95;;;16.30;55.30;;;;;;4910986;28;103920;-70
2022/04/06 02:36:17;;;;;;;5.47;1.95;;;16.30;55.30;;;;;;4911391;28;92548;-69
2022/04/06 02:38:43;;;;;;;4.53;2.08;;;16.30;55.40;;;;;;4911621;28;92582;-70
2022/04/06 02:41:09;;;;;;;3.80;2.00;;;16.30;55.40;;;;;;4911568;28;92659;-69
2022/04/06 02:43:35;;;;;;;5.22;2.00;;;16.30;55.30;;;;;;4911145;28;93177;-70
2022/04/06 02:46:01;;;;;;;4.47;1.75;;;16.30;55.30;;;;;;4911697;28;93388;-70
2022/04/06 02:48:27;;;;;;;5.75;1.98;;;16.30;55.30;;;;;;4911871;28;92385;-70
2022/04/06 02:50:53;;;;;;;5.68;1.98;;;16.30;55.20;;;;;;4911975;28;92737;-69
2022/04/06 02:53:19;;;;;;;5.20;1.98;;;16.30;55.30;;;;;;4911373;28;93014;-69
2022/04/06 02:55:45;;;;;;;4.45;1.83;;;16.30;55.30;;;;;;4910389;28;94908;-70
2022/04/06 02:58:11;;;;;;;5.43;2.38;;;16.30;55.20;;;;;;4912598;28;92917;-70
2022/04/06 03:00:36;;;;;;;6.28;2.00;;;16.30;55.30;;;;;;4914494;28;93300;-71
2022/04/06 03:03:03;;;;;;;4.38;1.75;;;16.30;55.30;;;;;;4914781;28;93657;-70
2022/04/06 03:05:29;;;;;;;5.95;2.15;;;16.30;55.30;;;;;;4915566;28;93034;-70
2022/04/06 03:07:54;;;;;;;4.13;1.88;;;16.30;55.40;;;;;;4913729;28;92501;-69
2022/04/06 03:10:20;;;;;;;5.75;2.05;;;16.30;55.30;;;;;;4914733;28;93024;-69
2022/04/06 03:12:46;;;;;;;6.53;2.15;;;16.30;55.30;;;;;;4915307;28;94113;-69
2022/04/06 03:15:12;;;;;;;4.65;2.17;;;16.30;55.30;;;;;;4914698;28;92998;-69
2022/04/06 04:18:39;;;;;;;5.18;1.80;;;16.10;55.20;;;;;;5175345;22;99675;-72
2022/04/06 04:23:48;;;;;;;5.25;2.00;;;16.10;55.20;;;;;;4934956;28;92518;-72
2022/04/06 04:26:14;;;;;;;3.78;1.80;;;16.10;55.20;;;;;;4934056;28;92468;-72
2022/04/06 04:28:40;;;;;;;5.38;2.00;;;16.10;55.00;;;;;;4933950;28;94337;-72
2022/04/06 04:31:08;;;;;;;5.07;1.77;;;16.20;55.10;;;;;;4934043;28;102386;-73
2022/04/06 04:33:34;;;;;;;3.67;1.73;;;16.10;55.10;;;;;;4933787;28;92655;-72
2022/04/06 04:36:00;;;;;;;5.07;2.00;;;16.20;55.00;;;;;;4935437;28;91685;-72
2022/04/06 04:38:25;;;;;;;3.95;1.60;;;16.20;55.00;;;;;;4934265;28;92972;-72
2022/04/06 04:40:51;;;;;;;4.43;1.77;;;16.20;55.00;;;;;;4934503;28;93739;-72
2022/04/06 04:43:17;;;;;;;4.82;1.85;;;16.20;55.00;;;;;;4932670;28;95418;-72
2022/04/06 04:45:43;;;;;;;3.80;1.65;;;16.20;55.00;;;;;;4934203;28;93046;-72
2022/04/06 04:48:08;;;;;;;4.47;1.80;;;16.20;55.00;;;;;;4934477;28;94026;-72
2022/04/06 04:50:34;;;;;;;3.75;1.73;;;16.20;55.00;;;;;;4932914;28;94160;-72
2022/04/06 04:53:02;;;;;;;6.72;2.10;;;16.10;55.00;;;;;;4933708;28;93787;-72
2022/04/06 04:55:27;;;;;;;3.17;1.60;;;16.10;55.00;;;;;;4933964;28;92577;-72
2022/04/06 04:57:53;;;;;;;4.28;1.50;;;16.20;55.10;;;;;;4934244;28;93448;-74
2022/04/06 05:00:18;;;;;;;4.45;1.88;;;16.10;55.00;;;;;;4934776;28;93852;-73
2022/04/06 05:02:44;;;;;;;4.70;2.03;;;16.10;55.00;;;;;;4934117;28;92821;-73
2022/04/06 05:05:11;;;;;;;3.85;1.67;;;16.10;55.00;;;;;;4933612;28;98113;-73
2022/04/06 05:07:37;;;;;;;3.17;1.60;;;16.10;55.00;;;;;;4932064;28;97262;-74
2022/04/06 05:10:10;;;;;;;3.92;1.80;;;16.10;55.00;;;;;;4932824;28;96206;-73
2022/04/06 05:12:36;;;;;;;3.00;1.40;;;16.10;55.00;;;;;;4933558;28;93128;-73
2022/04/06 05:15:04;;;;;;;4.25;1.73;;;16.10;55.00;;;;;;4933729;28;92677;-73
2022/04/06 05:17:30;;;;;;;2.60;1.50;;;16.10;55.00;;;;;;4932435;28;94469;-73
2022/04/06 05:19:55;;;;;;;5.18;1.90;;;16.10;55.00;;;;;;4942359;28;94405;-74
2022/04/06 05:22:21;;;;;;;4.38;1.65;;;16.10;55.00;;;;;;4951059;28;92543;-71
2022/04/06 05:24:47;;;;;;;4.15;1.48;;;16.10;55.00;;;;;;4951873;28;91972;-71
2022/04/06 05:27:13;;;;;;;4.25;1.45;;;16.10;54.90;;;;;;4950523;28;94881;-72
2022/04/06 05:29:39;;;;;;;3.10;1.70;;;16.10;54.90;;;;;;4950520;28;93429;-72
2022/04/06 05:32:05;;;;;;;3.85;1.50;;;16.10;55.00;;;;;;4950197;28;95252;-73
2022/04/06 05:34:31;;;;;;;6.95;2.00;;;16.10;55.00;;;;;;4951346;28;92981;-72
2022/04/06 05:36:59;;;;;;;5.65;1.70;;;16.10;55.00;;;;;;4950906;28;94592;-72
2022/04/06 05:39:25;;;;;;;5.15;2.05;;;16.10;55.00;;;;;;4949901;28;94160;-73
2022/04/06 05:41:50;;;;;;;4.32;1.80;;;16.10;55.10;;;;;;4950066;28;96414;-72
2022/04/06 05:44:16;;;;;;;6.97;1.65;;;16.10;55.00;;;;;;4950971;28;93097;-73
2022/04/06 05:46:42;;;;;;;7.72;1.42;;;16.10;55.00;;;;;;4949566;28;94240;-73
2022/04/06 05:49:08;;;;;;;5.45;1.77;;;16.10;55.00;;;;;;4950715;28;91967;-73
2022/04/06 05:51:34;;;;;;;4.55;1.50;;;16.10;55.00;;;;;;4951348;28;92871;-73
2022/04/06 05:54:01;;;;;;;3.97;1.63;;;16.10;55.10;;;;;;4950956;28;92677;-73
2022/04/06 05:56:27;;;;;;;9.05;2.10;;;16.10;55.00;;;;;;4949594;28;97933;-73
2022/04/06 05:58:54;;;;;;;5.03;1.58;;;16.10;55.10;;;;;;4950909;28;94267;-72
2022/04/06 06:01:19;;;;;;;6.03;1.50;;;16.10;55.00;;;;;;4951990;28;93018;-72
2022/04/06 06:03:46;;;;;;;4.55;1.42;;;16.10;55.00;;;;;;4955770;28;92637;-71
2022/04/06 06:06:12;;;;;;;5.60;1.38;;;16.10;55.10;;;;;;4953074;28;93377;-71
2022/04/06 06:08:37;;;;;;;3.53;1.27;;;16.20;55.20;;;;;;4950458;28;93159;-73
2022/04/06 06:11:04;;;;;;;3.55;1.25;;;16.30;55.10;;;;;;4950480;28;92552;-73
2022/04/06 06:13:30;;;;;;;5.95;1.42;;;16.40;55.20;;;;;;4951035;28;91842;-73
2022/04/06 06:15:56;;;;;;;3.08;1.27;;;16.60;54.90;;;;;;4950029;28;93397;-72
2022/04/06 06:18:22;;;;;;;2.63;1.05;;;16.70;54.60;;;;;;4950507;28;93927;-72
2022/04/06 06:20:48;;;;;;;3.33;1.30;;;16.90;54.30;;;;;;4911350;28;1098225;-72
2022/04/06 06:23:14;;;;;;;5.85;1.25;;;17.00;54.00;;;;;;4952549;28;92468;-72
2022/04/06 06:25:39;;;;;;;4.40;1.27;;;17.10;53.70;;;;;;4951260;28;94005;-70
2022/04/06 06:28:05;;;;;;;5.00;1.52;;;17.30;53.50;;;;;;4952631;28;92802;-72
2022/04/06 06:30:31;;;;;;;4.25;1.35;;;17.40;53.20;;;;;;4951872;28;93330;-72
2022/04/06 06:32:56;;;;;;;4.82;1.15;;;17.50;53.00;;;;;;4951403;28;92628;-72
2022/04/06 06:35:24;;;;;;;4.95;1.45;;;17.60;52.80;;;;;;4951434;28;93343;-73
2022/04/06 06:37:53;;;;;;;3.22;1.20;;;17.60;52.70;;;;;;4952272;28;94894;-72
2022/04/06 06:40:20;;;;;;;3.85;1.38;;;17.60;52.50;;;;;;4950770;28;92601;-72
2022/04/06 06:42:46;;;;;;;4.22;1.20;;;17.70;52.50;;;;;;4951554;28;92770;-72
2022/04/06 06:45:11;;;;;;;3.03;0.98;;;17.70;52.50;;;;;;4949726;28;96567;-71
2022/04/06 06:47:40;;;;;;;4.13;1.15;;;17.80;52.30;;;;;;4951709;28;96170;-72
2022/04/06 06:50:06;;;;;;;3.25;1.30;;;17.80;52.20;;;;;;4951720;28;92493;-72
2022/04/06 06:52:34;;;;;;;4.53;1.30;;;17.90;52.30;;;;;;4951694;28;92525;-72
2022/04/06 06:55:05;;;;;;;3.53;1.10;;;17.90;52.50;;;;;;4951934;28;94087;-72
2022/04/06 06:57:31;;;;;;;3.70;1.10;;;17.90;52.20;;;;;;4951697;28;94711;-72
2022/04/06 06:59:57;;;;;;;3.42;1.05;;;17.90;52.20;;;;;;4952058;28;93076;-72
2022/04/06 07:02:22;;;;;;;2.90;1.15;;;17.90;52.20;;;;;;4952526;28;91717;-71
2022/04/06 07:04:48;;;;;;;2.60;1.15;;;17.90;52.30;;;;;;4951353;28;95501;-70
2022/04/06 07:07:13;;;;;;;2.67;1.17;;;17.80;52.30;;;;;;4951337;28;93488;-72
2022/04/06 07:09:39;;;;;;;3.22;1.30;;;17.80;52.40;;;;;;4950165;28;95306;-73
2022/04/06 07:12:06;;;;;;;6.10;1.38;;;17.80;52.40;;;;;;4951499;28;92669;-72
2022/04/06 07:14:32;;;;;;;3.83;1.30;;;17.70;52.40;;;;;;4951648;28;94579;-73
2022/04/06 07:16:59;;;;;;;2.33;0.93;;;17.70;52.50;;;;;;4950745;28;94440;-72
2022/04/06 07:19:24;;;;;;;2.78;1.20;;;17.70;52.70;;;;;;4951148;28;92762;-72
2022/04/06 07:21:50;;;;;;;2.97;1.13;;;17.70;52.70;;;;;;4951715;28;92865;-72
2022/04/06 07:24:16;;;;;;;2.97;1.13;;;17.60;52.70;;;;;;4951098;28;93681;-72
2022/04/06 07:26:42;;;;;;;3.78;1.30;;;17.60;52.80;;;;;;4950649;28;93842;-72
2022/04/06 07:29:11;;;;;;;3.05;1.10;;;17.50;52.80;;;;;;4951031;28;92572;-71
2022/04/06 07:31:38;;;;;;;2.45;1.08;;;17.50;52.90;;;;;;4950707;28;92456;-72
2022/04/06 07:34:04;;;;;;;3.35;1.20;;;17.50;53.00;;;;;;4949244;28;95611;-72
2022/04/06 07:36:30;;;;;;;2.20;1.13;;;17.50;53.10;;;;;;4950599;28;95442;-72
2022/04/06 07:38:55;;;;;;;4.43;1.20;;;17.40;53.20;;;;;;4950790;28;92562;-72
2022/04/06 07:41:24;;;;;;;3.10;1.25;;;17.40;53.30;;;;;;4951651;28;92845;-72
2022/04/06 07:43:50;;;;;;;3.30;1.27;;;17.40;53.30;;;;;;4951417;28;94594;-72
2022/04/06 07:46:15;;;;;;;3.28;1.00;;;17.30;53.30;;;;;;4954074;28;107991;-72
2022/04/06 07:48:41;;;;;;;3.65;1.30;;;17.30;53.40;;;;;;4956149;28;92720;-73
2022/04/06 07:51:07;;;;;;;3.47;1.25;;;17.30;53.50;;;;;;4959549;28;91793;-72
2022/04/06 07:53:32;;;;;;;2.90;1.10;;;17.30;53.50;;;;;;4956528;28;94099;-72
2022/04/06 07:55:58;;;;;;;2.35;1.00;;;17.20;53.50;;;;;;4955321;28;93962;-72
2022/04/06 07:58:24;;;;;;;3.88;1.10;;;17.20;53.40;;;;;;4952562;28;97163;-73
2022/04/06 08:00:50;;;;;;;3.25;1.17;;;17.20;53.30;;;;;;4954218;28;92415;-72
2022/04/06 08:03:15;;;;;;;3.85;1.13;;;17.10;53.30;;;;;;4954087;28;96529;-72
2022/04/06 08:05:41;;;;;;;3.65;1.27;;;17.10;53.40;;;;;;4953928;28;97587;-72
2022/04/06 08:08:07;;;;;;;2.75;1.05;;;17.10;53.50;;;;;;4954227;28;92524;-72
2022/04/06 08:10:33;;;;;;;3.83;1.25;;;17.00;53.50;;;;;;4953467;28;92499;-70
2022/04/06 08:12:58;;;;;;;2.90;1.20;;;17.00;53.50;;;;;;4953992;28;93245;-72
2022/04/06 08:15:24;;;;;;;5.57;1.23;;;17.00;53.60;;;;;;4953670;28;101533;-72
2022/04/06 08:17:49;;;;;;;3.65;1.10;;;17.00;53.70;;;;;;4953880;28;92920;-72
2022/04/06 08:20:17;;;;;;;4.70;1.40;;;16.90;53.80;;;;;;4954071;28;92579;-73
2022/04/06 08:22:45;;;;;;;3.90;1.23;;;16.90;53.80;;;;;;4951093;28;96064;-73
2022/04/06 08:25:28;;;;;;;4.35;1.35;;;16.90;54.00;;;;;;4953244;28;96755;-72
2022/04/06 08:27:56;;;;;;;4.28;1.13;;;16.90;54.10;;;;;;4954201;28;92498;-73
2022/04/06 08:30:22;;;;;;;3.92;1.23;;;16.80;54.10;;;;;;4953034;28;93024;-74
2022/04/06 08:32:48;;;;;;;4.53;1.20;;;16.80;54.20;;;;;;4952786;28;94113;-73
2022/04/06 08:35:14;;;;;;;3.78;1.55;;;16.80;54.30;;;;;;4952910;28;94256;-73
2022/04/06 08:37:40;;;;;;;3.75;1.25;;;16.80;54.30;;;;;;4953760;28;92608;-73
2022/04/06 08:40:10;;;;;;;5.53;1.30;;;16.80;54.30;;;;;;4952557;28;93850;-73
2022/04/06 08:42:42;;;;;;;2.30;1.08;;;16.80;54.40;;;;;;4952347;28;95363;-73
2022/04/06 08:45:22;;;;;;;2.85;1.00;;;16.70;54.40;;;;;;4952738;28;92879;-74
2022/04/06 08:47:49;;;;;;;3.03;1.05;;;16.70;54.50;;;;;;4952926;28;94862;-73
2022/04/06 08:50:18;;;;;;;3.70;1.17;;;16.70;54.50;;;;;;4953858;28;92741;-73
2022/04/06 08:52:44;;;;;;;4.03;1.25;;;16.70;54.50;;;;;;4953437;28;92994;-73
2022/04/06 08:55:12;;;;;;;2.53;1.20;;;16.70;54.60;;;;;;4953060;28;95024;-73
2022/04/06 08:57:40;;;;;;;2.88;1.13;;;16.70;54.70;;;;;;4952907;28;93320;-73
2022/04/06 09:00:10;;;;;;;2.95;1.00;;;16.70;54.70;;;;;;4954181;28;93014;-73
2022/04/06 09:02:40;;;;;;;3.22;1.10;;;16.70;54.80;;;;;;4953554;28;93260;-74
2022/04/06 09:05:11;;;;;;;4.03;1.33;;;16.70;54.80;;;;;;4953324;28;93287;-73
2022/04/06 09:07:39;;;;;;;4.38;1.27;;;16.70;54.80;;;;;;4953722;28;92972;-73
2022/04/06 09:10:06;;;;;;;3.67;1.23;;;16.60;54.70;;;;;;4953109;28;93276;-73
2022/04/06 09:12:32;;;;;;;3.55;1.15;;;16.60;54.80;;;;;;4951611;28;98020;-74
2022/04/06 09:15:12;;;;;;;4.07;1.10;;;16.60;54.80;;;;;;4952616;28;95366;-73
2022/04/06 09:17:47;;;;;;;3.80;1.17;;;16.60;54.90;;;;;;4952153;28;92633;-74
2022/04/06 09:20:15;;;;;;;3.60;1.23;;;16.60;54.90;;;;;;4952336;28;92753;-72
2022/04/06 09:22:41;;;;;;;3.17;1.17;;;16.60;54.90;;;;;;4952325;28;93405;-73
2022/04/06 09:25:09;;;;;;;3.92;1.10;;;16.60;54.90;;;;;;4952063;28;93498;-74
2022/04/06 09:27:41;;;;;;;4.30;1.40;;;16.60;54.90;;;;;;4952381;28;92489;-74
2022/04/06 09:30:08;;;;;;;2.00;1.10;;;16.60;54.90;;;;;;4953542;28;92337;-74
2022/04/06 09:32:35;;;;;;;3.90;1.10;;;16.60;54.90;;;;;;4952142;28;94206;-73
2022/04/06 09:35:34;;;;;;;4.18;1.15;;;16.60;54.90;;;;;;4956055;28;93606;-73
2022/04/06 09:38:20;;;;;;;3.05;1.10;;;16.60;55.00;;;;;;4954238;28;95004;-72
2022/04/06 09:40:46;;;;;;;5.93;1.50;;;16.60;55.00;;;;;;4952883;28;93236;-73
2022/04/06 09:43:33;;;;;;;2.83;1.00;;;16.50;55.00;;;;;;4952052;28;93796;-73
2022/04/06 09:49:05;;;;;;;3.63;1.33;;;16.60;55.10;;;;;;4951746;28;93087;-73
2022/04/06 09:51:31;;;;;;;3.90;1.67;;;16.50;55.20;;;;;;4951702;28;92506;-73
2022/04/06 09:54:01;;;;;;;3.22;1.23;;;16.50;55.20;;;;;;4951801;28;94600;-74
2022/04/06 09:56:27;;;;;;;3.70;1.25;;;16.50;55.20;;;;;;4952084;28;93901;-74
2022/04/06 09:58:56;;;;;;;3.75;1.30;;;16.50;55.10;;;;;;4952649;28;92972;-73
2022/04/06 10:01:23;;;;;;;2.92;1.00;;;16.50;55.20;;;;;;4934269;28;92484;-74
2022/04/06 10:03:52;;;;;;;2.63;1.00;;;16.50;55.20;;;;;;4951040;28;96007;-72
2022/04/06 10:06:19;;;;;;;2.92;1.20;;;16.50;55.20;;;;;;4951642;28;96537;-73
2022/04/06 10:08:45;;;;;;;3.85;1.20;;;16.50;55.30;;;;;;4952433;28;92611;-73
2022/04/06 10:11:12;;;;;;;3.75;1.20;;;16.50;55.20;;;;;;4952990;28;92612;-73
2022/04/06 10:13:42;;;;;;;3.00;1.10;;;16.50;55.20;;;;;;4951733;28;93231;-73
2022/04/06 10:16:12;;;;;;;4.15;1.35;;;16.50;55.20;;;;;;4952705;28;92994;-73
2022/04/06 10:18:39;;;;;;;3.58;1.33;;;16.50;55.30;;;;;;4952919;28;92847;-73
2022/04/06 10:21:30;;;;;;;2.97;1.27;;;16.50;55.30;;;;;;4953105;28;92307;-72
2022/04/06 10:24:24;;;;;;;2.90;1.10;;;16.50;55.20;;;;;;4952644;28;93150;-72
2022/04/06 10:27:04;;;;;;;3.40;1.30;;;16.50;55.20;;;;;;4952233;28;94238;-72
2022/04/06 10:29:30;;;;;;;2.63;1.08;;;16.50;55.20;;;;;;4951724;28;95250;-72
2022/04/06 10:31:56;;;;;;;3.20;1.10;;;16.50;55.20;;;;;;4952356;28;93260;-72
2022/04/06 10:34:22;;;;;;;2.63;1.13;;;16.50;55.20;;;;;;4952817;28;94011;-73
2022/04/06 10:37:11;;;;;;;3.47;1.25;;;16.50;55.30;;;;;;4951773;28;92787;-73
2022/04/06 10:39:52;;;;;;;2.50;1.10;;;16.50;55.20;;;;;;4952606;28;92502;-73
2022/04/06 10:42:28;;;;;;;4.07;1.20;;;16.50;55.20;;;;;;4952925;28;92487;-73
2022/04/06 10:44:55;;;;;;;3.28;1.20;;;16.50;55.20;;;;;;4951541;28;94029;-72
2022/04/06 10:47:22;;;;;;;3.17;1.00;;;16.50;55.20;;;;;;4952547;28;93953;-71
2022/04/06 10:50:16;;;;;;;4.00;1.40;;;16.40;55.20;;;;;;4951009;28;92925;-72
2022/04/06 10:52:44;;;;;;;;;;;16.50;55.20;;;;;;4951667;28;92631;-73
2022/04/06 10:55:21;;;;;;;3.38;1.23;;;16.40;55.20;;;;;;4951378;28;95665;-73
2022/04/06 10:57:59;;;;;;;3.95;1.40;;;16.40;55.40;;;;;;4951095;28;96551;-72
2022/04/06 11:00:27;;;;;;;3.75;1.08;;;16.50;55.30;;;;;;4951192;28;92536;-73
2022/04/06 11:02:54;;;;;;;3.03;1.33;;;16.50;55.30;;;;;;4951754;28;92970;-73
2022/04/06 11:05:46;;;;;;;4.07;1.40;;;16.50;55.30;;;;;;4951275;28;94828;-73
2022/04/06 11:11:47;;;;;;;4.75;1.65;;;16.40;55.20;;;;;;4952544;28;92894;-72
2022/04/06 11:14:24;;;;;;;3.75;1.50;;;16.50;55.50;;;;;;4952265;28;91972;-72
2022/04/06 11:16:52;;;;;;;4.95;1.40;;;16.50;55.40;;;;;;4951364;28;94512;-72
2022/04/06 11:19:17;;;;;;;3.92;1.38;;;16.50;55.40;;;;;;4952506;28;95160;-72
2022/04/06 11:21:55;;;;;;;3.25;1.25;;;16.50;55.40;;;;;;4957669;28;94962;-72
2022/04/06 11:24:31;;;;;;;3.85;1.40;;;16.50;55.40;;;;;;4954761;28;92551;-72
2022/04/06 11:26:56;;;;;;;3.65;1.30;;;16.50;55.40;;;;;;4954934;28;93305;-72
2022/04/06 11:29:26;;;;;;;4.35;1.45;;;16.50;55.50;;;;;;4953550;28;93799;-72
2022/04/06 11:32:06;;;;;;;3.83;1.42;;;16.50;55.40;;;;;;4954014;28;92888;-72
2022/04/06 11:34:39;;;;;;;3.85;1.40;;;16.50;55.40;;;;;;4954085;28;92910;-73
2022/04/06 11:37:07;;;;;;;3.63;1.50;;;16.50;55.50;;;;;;4954927;28;94097;-73
2022/04/06 11:39:33;;;;;;;4.40;1.63;;;16.50;55.50;;;;;;4955381;28;93632;-73
2022/04/06 11:42:01;;;;;;;4.25;1.60;;;16.50;55.50;;;;;;4955849;28;92630;-72
2022/04/06 11:44:28;;;;;;;2.50;1.10;;;16.50;55.50;;;;;;4954622;28;93177;-73
2022/04/06 11:46:54;;;;;;;4.80;1.73;;;16.50;55.50;;;;;;4953468;28;96543;-73
2022/04/06 11:49:26;;;;;;;3.75;1.55;;;16.50;55.50;;;;;;4954083;28;96332;-73
2022/04/06 11:51:57;;;;;;;3.63;1.50;;;16.50;55.50;;;;;;4954432;28;92576;-73
2022/04/06 11:54:23;;;;;;;3.17;1.50;;;16.50;55.60;;;;;;4954186;28;93058;-74
2022/04/06 11:56:53;;;;;;;3.25;1.60;;;16.50;55.60;;;;;;4953756;28;93353;-73
2022/04/06 11:59:21;;;;;;;3.25;1.25;;;16.50;55.60;;;;;;4954324;28;93752;-74
2022/04/06 12:01:47;;;;;;;3.63;1.70;;;16.50;55.60;;;;;;4954253;28;92541;-73
2022/04/06 12:04:18;;;;;;;4.03;1.50;;;16.50;55.70;;;;;;4954719;28;92339;-72
2022/04/06 12:06:46;;;;;;;4.40;1.65;;;16.50;55.70;;;;;;4954348;28;93885;-73
2022/04/06 12:09:12;;;;;;;4.75;1.63;;;16.50;55.70;;;;;;4954613;28;94254;-74
2022/04/06 12:11:39;;;;;;;4.35;1.40;;;16.50;55.70;;;;;;4952586;28;94949;-73
2022/04/06 12:14:10;;;;;;;3.38;1.40;;;16.50;55.70;;;;;;4954705;28;92778;-72
2022/04/06 12:16:37;;;;;;;3.97;1.63;;;16.50;55.70;;;;;;4953744;28;94632;-73
2022/04/06 12:19:05;;;;;;;4.20;1.50;;;16.50;55.70;;;;;;4952885;28;93925;-73
2022/04/06 12:21:31;;;;;;;3.67;1.38;;;16.50;55.70;;;;;;4936773;28;92949;-73
2022/04/06 12:23:56;;;;;;;3.22;1.40;;;16.50;55.80;;;;;;4954467;28;93155;-73
2022/04/06 12:26:24;;;;;;;3.75;1.63;;;16.40;55.70;;;;;;4953321;28;94264;-73
2022/04/06 12:28:58;;;;;;;4.28;1.30;;;16.50;55.70;;;;;;4954152;28;93854;-73
2022/04/06 12:31:38;;;;;;;3.45;1.30;;;16.50;55.70;;;;;;4953238;28;92855;-73
2022/04/06 12:34:04;;;;;;;3.13;1.40;;;16.50;56.70;;;;;;4953397;28;92608;-73
2022/04/06 12:36:30;;;;;;;4.18;1.60;;;16.40;55.70;;;;;;4951311;28;95986;-73
2022/04/06 12:39:06;;;;;;;2.85;1.00;;;16.50;55.80;;;;;;4953145;28;96488;-73
2022/04/06 12:41:35;;;;;;;3.40;1.50;;;16.50;55.80;;;;;;4952697;28;93134;-73
2022/04/06 12:44:04;;;;;;;4.38;1.98;;;16.40;55.80;;;;;;4953354;28;93044;-74
2022/04/06 12:46:41;;;;;;;4.45;1.67;;;16.50;55.90;;;;;;4952236;28;94249;-74
2022/04/06 12:49:37;;;;;;;4.15;1.42;;;16.50;55.80;;;;;;4952888;28;94790;-74
2022/04/06 12:52:18;;;;;;;4.15;1.50;;;16.50;55.80;;;;;;4945084;28;92787;-74
2022/04/06 12:54:49;;;;;;;2.50;1.35;;;16.50;55.80;;;;;;4954651;28;91817;-74
2022/04/06 12:57:17;;;;;;;3.40;1.38;;;16.40;55.80;;;;;;4952861;28;95679;-74
2022/04/06 12:59:54;;;;;;;5.05;1.58;;;16.40;55.80;;;;;;4953084;28;93158;-74
2022/04/06 13:02:37;;;;;;;2.95;1.20;;;16.40;55.90;;;;;;4952369;28;95575;-72
2022/04/06 13:05:08;;;;;;;4.10;1.58;;;16.40;55.80;;;;;;4957318;28;92502;-72
2022/04/06 13:07:42;;;;;;;2.42;1.27;;;16.40;56.90;;;;;;4955673;28;94588;-72
2022/04/06 13:10:10;;;;;;;4.57;1.80;;;16.40;55.90;;;;;;4953789;28;94243;-75
2022/04/06 13:12:37;;;;;;;4.50;1.58;;;16.40;55.80;;;;;;4953051;28;92758;-72
2022/04/06 13:15:13;;;;;;;3.28;1.30;;;16.40;56.90;;;;;;4953014;28;92503;-73
2022/04/06 13:17:39;;;;;;;2.75;1.30;;;16.40;55.90;;;;;;4951991;28;94310;-72
2022/04/06 13:20:07;;;;;;;2.90;1.50;;;16.40;55.90;;;;;;4952876;28;92338;-74
2022/04/06 13:22:34;;;;;;;2.20;1.23;;;16.40;55.90;;;;;;4951989;28;92583;-73
2022/04/06 13:24:59;;;;;;;2.80;1.40;;;16.40;55.90;;;;;;4953408;28;93986;-73
2022/04/06 13:27:25;;;;;;;3.85;1.50;;;16.40;55.90;;;;;;4951730;28;95689;-72
2022/04/06 13:29:51;;;;;;;4.63;1.38;;;16.40;55.90;;;;;;4952232;28;96692;-72
2022/04/06 13:32:17;;;;;;;4.05;1.50;;;16.40;56.00;;;;;;4953458;28;92705;-72
2022/04/06 13:34:44;;;;;;;2.50;1.77;;;16.40;56.00;;;;;;4952483;28;94003;-73
2022/04/06 13:37:10;;;;;;;3.10;1.38;;;16.40;56.00;;;;;;4953314;28;92959;-72
2022/04/06 13:39:37;;;;;;;2.38;1.23;;;16.40;56.00;;;;;;4953021;28;93591;-73
2022/04/06 13:42:03;;;;;;;4.30;1.50;;;16.40;56.10;;;;;;4952377;28;92454;-73
2022/04/06 13:44:33;;;;;;;3.97;1.58;;;16.40;56.10;;;;;;4953041;28;91736;-73
2022/04/06 13:47:00;;;;;;;2.45;1.25;;;16.40;56.10;;;;;;4953091;28;93431;-73
2022/04/06 13:49:26;;;;;;;3.83;1.40;;;16.30;56.10;;;;;;4952567;28;94007;-72
2022/04/06 13:51:56;;;;;;;2.42;1.27;;;16.40;56.20;;;;;;4951955;28;95105;-72
2022/04/06 13:54:23;;;;;;;2.05;1.15;;;16.40;56.20;;;;;;4953170;28;93010;-72
2022/04/06 13:56:49;;;;;;;2.45;1.30;;;16.40;56.20;;;;;;4953249;28;94242;-71
2022/04/06 13:59:15;;;;;;;2.15;1.20;;;16.40;56.30;;;;;;4952676;28;95330;-72
2022/04/06 14:01:43;;;;;;;2.28;1.33;;;16.30;56.20;;;;;;4952263;28;92987;-72
2022/04/06 14:04:09;;;;;;;2.83;1.13;;;16.30;56.30;;;;;;4952640;28;92667;-72
2022/04/06 14:06:35;;;;;;;1.60;0.95;;;16.30;56.30;;;;;;4952798;28;93195;-72